ETEB/QOB METAR and TAF weather

Enter ICAO airport designator
Station Type Date Time Source
ETEB METAR 2018/10/21 02:56 UTC NOAA

ETEB 210256Z AUTO 00000KT 9999 OVC110 06/04 A3037 RMK AO2 SLP300 T00610041 56004 $


Station Type Date Time Source
ETEB Decoded METAR 2018/10/21 02:56 UTC NOAA

Ansbach / Katterbach, Germany (ETEB) 49-19N 010-38E 476M
Oct 20, 2018 - 10:56 PM EDT / 2018.10.21 0256 UTC
Wind: Calm:0
Visibility: greater than 7 mile(s):0
Sky conditions: overcast
Temperature: 43.0 F (6.1 C)
Dew Point: 39.4 F (4.1 C)
Relative Humidity: 86%
Pressure (altimeter): 30.37 in. Hg (1028 hPa)
Pressure tendency: 0.01 inches (0.4 hPa) lower than three hours ago
ob: ETEB 210256Z AUTO 00000KT 9999 OVC110 06/04 A3037 RMK AO2 SLP300 T00610041 56004
cycle: 3

Station Type Date Time Source
ETEB TAF 2018/10/19 16:17 UTC NOAA

TAF
AMD ETEB 191610Z 1916/2019 VRB06KT 9999 SCT020 BKN025 QNH3018INS
BECMG 1923/1924 VRB06KT 6000 BR SKC QNH3022INS
BECMG 2002/2003 VRB06KT 3200 BR FEW001 QNH3024INS
BECMG 2003/2004 VRB06KT 0400 FG VV001 QNH3032INS
BECMG 2008/2009 01006KT 9999 NSW FEW002 SCT010 QNH3032INS
BECMG 2011/2012 02006KT 9999 SCT030 QNH3032INS TX16/2013Z TN04/2006Z LAST NO
AMDS AFT 1916 NEXT 2105


Example: see airport list